Time;durP1;ratioP1;P1;durP2;ratioP2;P2;SDS_P1;SDS_P2;PMS_P1;PMS_P2;Temp;Humidity;BMP_temperature;BMP_pressure;BME280_temperature;BME280_humidity;BME280_pressure;Samples;Min_cycle;Max_cycle;Signal;HPM_P1;HPM_P2
2021/09/30 00:00:06;;;;;;;62.53;31.63;;;13.40;99.90;;;;;;4437210;28;658008;-66
2021/09/30 00:02:55;;;;;;;60.47;30.33;;;13.40;99.90;;;;;;4413669;28;657140;-66
2021/09/30 00:05:43;;;;;;;61.57;32.13;;;13.40;99.90;;;;;;4413919;28;657146;-65
2021/09/30 00:08:30;;;;;;;59.67;29.97;;;13.50;99.90;;;;;;4416198;28;656778;-67
2021/09/30 00:11:22;;;;;;;58.77;29.60;;;13.50;99.90;;;;;;4433582;28;657211;-66
2021/09/30 00:14:12;;;;;;;55.10;28.92;;;13.50;99.90;;;;;;4412333;28;656351;-67
2021/09/30 00:17:15;;;;;;;54.10;27.90;;;13.50;99.90;;;;;;4404214;28;655983;-66
2021/09/30 00:32:48;;;;;;;59.60;30.03;;;13.50;99.90;;;;;;4322035;28;657685;-66
2021/09/30 00:35:50;;;;;;;62.90;29.93;;;13.50;99.90;;;;;;4317082;28;656483;-66
2021/09/30 00:41:59;;;;;;;68.03;28.87;;;13.50;99.90;;;;;;4244102;29;656446;-66
2021/09/30 00:48:03;;;;;;;58.53;28.53;;;13.50;99.90;;;;;;4204723;29;656665;-66
2021/09/30 00:51:04;;;;;;;85.77;30.67;;;13.50;99.90;;;;;;4220900;29;656381;-67
2021/09/30 02:58:37;;;;;;;96.80;38.33;;;13.60;99.90;;;;;;4332744;28;656904;-67
2021/09/30 03:01:27;;;;;;;94.30;39.43;;;13.50;99.90;;;;;;4336714;28;656543;-67
2021/09/30 03:04:14;;;;;;;113.30;39.27;;;13.50;99.90;;;;;;4326807;28;656513;-67
2021/09/30 03:07:02;;;;;;;104.10;40.83;;;13.50;99.90;;;;;;4343732;28;657593;-67
2021/09/30 03:09:49;;;;;;;125.10;40.53;;;13.50;99.90;;;;;;4359078;28;657425;-68
2021/09/30 03:12:37;;;;;;;102.27;38.57;;;13.50;99.90;;;;;;4345161;28;657536;-67
2021/09/30 03:15:39;;;;;;;104.07;40.50;;;13.50;99.90;;;;;;4368659;28;657673;-67
2021/09/30 03:18:31;;;;;;;107.97;42.03;;;13.50;99.90;;;;;;4311239;28;658858;-67
2021/09/30 03:24:23;;;;;;;108.97;40.57;;;13.60;99.90;;;;;;4385026;28;658172;-67
2021/09/30 03:27:11;;;;;;;95.97;41.00;;;13.50;99.90;;;;;;4417531;28;659397;-67
2021/09/30 03:29:58;;;;;;;101.60;41.47;;;13.50;99.90;;;;;;4436265;28;657394;-67
2021/09/30 03:32:46;;;;;;;101.20;41.23;;;13.60;99.90;;;;;;4415735;28;657951;-67
2021/09/30 03:35:35;;;;;;;94.63;41.10;;;13.60;99.90;;;;;;4431684;28;658840;-67
2021/09/30 03:38:22;;;;;;;95.23;39.73;;;13.60;99.90;;;;;;4421025;28;656458;-67
2021/09/30 03:41:10;;;;;;;101.60;40.27;;;13.50;99.90;;;;;;4432228;28;656501;-67
2021/09/30 03:43:58;;;;;;;102.63;41.43;;;13.60;99.90;;;;;;4433293;28;659155;-67
2021/09/30 03:46:48;;;;;;;110.10;43.47;;;13.50;99.90;;;;;;4417408;28;657664;-67
2021/09/30 03:49:36;;;;;;;108.80;43.67;;;13.50;99.90;;;;;;4413879;28;658077;-68
2021/09/30 03:52:30;;;;;;;110.97;42.43;;;13.50;99.90;;;;;;4435422;28;658026;-67
2021/09/30 03:55:30;;;;;;;101.40;43.07;;;13.50;99.90;;;;;;4388793;28;659373;-67
2021/09/30 04:01:22;;;;;;;117.67;44.93;;;13.50;99.90;;;;;;4389351;28;657737;-67
2021/09/30 04:04:09;;;;;;;112.83;43.90;;;13.50;99.90;;;;;;4424222;28;657299;-67
2021/09/30 04:06:57;;;;;;;112.33;44.50;;;13.50;99.90;;;;;;4402986;28;657785;-67
2021/09/30 04:09:46;;;;;;;108.70;44.40;;;13.50;99.90;;;;;;4425334;28;657724;-67
2021/09/30 04:12:34;;;;;;;108.57;42.33;;;13.50;99.90;;;;;;4402710;28;659104;-67
2021/09/30 04:15:21;;;;;;;99.20;40.83;;;13.50;99.90;;;;;;4415071;28;657814;-67
2021/09/30 04:18:09;;;;;;;111.93;44.73;;;13.50;99.90;;;;;;4431070;28;656847;-67
2021/09/30 04:20:56;;;;;;;106.03;45.90;;;13.50;99.90;;;;;;4402830;28;657519;-67
2021/09/30 04:23:44;;;;;;;102.27;44.73;;;13.50;99.90;;;;;;4435295;28;657484;-67
2021/09/30 04:26:33;;;;;;;98.13;42.17;;;13.50;99.90;;;;;;4413474;28;657629;-67
2021/09/30 04:29:20;;;;;;;99.83;45.37;;;13.50;99.90;;;;;;4426814;28;656584;-67
2021/09/30 04:32:08;;;;;;;94.90;42.47;;;13.40;99.90;;;;;;4433725;28;657949;-67
2021/09/30 04:34:56;;;;;;;94.27;44.27;;;13.40;99.90;;;;;;4384315;28;656978;-68
2021/09/30 04:37:43;;;;;;;102.10;44.07;;;13.40;99.90;;;;;;4419944;28;657874;-67
2021/09/30 04:40:31;;;;;;;102.43;46.73;;;13.40;99.90;;;;;;4391715;28;657312;-67
2021/09/30 04:43:20;;;;;;;97.20;46.40;;;13.30;99.90;;;;;;4409514;28;657355;-67
2021/09/30 04:46:07;;;;;;;90.63;42.73;;;13.30;99.90;;;;;;4387028;28;657040;-67
2021/09/30 04:48:55;;;;;;;90.53;40.87;;;13.30;99.90;;;;;;4391314;28;656694;-67
2021/09/30 04:51:43;;;;;;;80.70;39.90;;;13.20;99.90;;;;;;4416076;28;658137;-67
2021/09/30 04:54:30;;;;;;;83.03;39.90;;;13.10;99.90;;;;;;4412521;28;656598;-67
2021/09/30 04:57:18;;;;;;;76.30;38.27;;;13.10;99.90;;;;;;4415949;28;657782;-68
2021/09/30 05:00:09;;;;;;;82.33;41.57;;;13.00;99.90;;;;;;4395190;28;656765;-67
2021/09/30 05:02:56;;;;;;;78.20;40.33;;;13.00;99.90;;;;;;4394502;28;657804;-67
2021/09/30 05:05:44;;;;;;;75.47;39.57;;;13.00;99.90;;;;;;4416372;28;656566;-68
2021/09/30 05:08:33;;;;;;;82.47;40.33;;;12.90;99.90;;;;;;4395820;28;656580;-68
2021/09/30 05:11:22;;;;;;;79.67;40.57;;;12.90;99.90;;;;;;4388349;28;659005;-68
2021/09/30 05:14:10;;;;;;;81.10;40.40;;;13.00;99.90;;;;;;4404737;28;656144;-67
2021/09/30 05:16:59;;;;;;;80.20;40.37;;;12.90;99.90;;;;;;4385987;28;658683;-67
2021/09/30 05:19:46;;;;;;;82.73;41.60;;;12.90;99.90;;;;;;4399993;28;656634;-67
2021/09/30 05:22:34;;;;;;;68.07;37.10;;;12.90;99.90;;;;;;4418777;28;656766;-67
2021/09/30 05:25:21;;;;;;;83.67;38.27;;;12.90;99.90;;;;;;4389945;28;657597;-67
2021/09/30 05:28:09;;;;;;;78.17;37.03;;;12.80;99.90;;;;;;4406760;28;657933;-67
2021/09/30 05:30:56;;;;;;;67.13;33.73;;;12.70;99.90;;;;;;4394391;28;656548;-68
2021/09/30 05:33:45;;;;;;;65.70;33.93;;;12.60;99.90;;;;;;4418717;28;657438;-67
2021/09/30 05:36:33;;;;;;;64.33;32.40;;;12.60;99.90;;;;;;4391930;28;657752;-67
2021/09/30 05:39:21;;;;;;;61.33;33.45;;;12.50;99.90;;;;;;4396408;28;656549;-67
2021/09/30 05:42:08;;;;;;;61.70;31.80;;;12.40;99.90;;;;;;4422983;28;657523;-67
2021/09/30 05:44:57;;;;;;;67.23;34.23;;;12.40;99.90;;;;;;4403655;28;657188;-67
2021/09/30 05:47:46;;;;;;;58.47;32.10;;;12.30;99.90;;;;;;4408968;28;656594;-67
2021/09/30 05:50:35;;;;;;;64.00;33.00;;;12.30;99.90;;;;;;4411913;28;658334;-68
2021/09/30 05:53:23;;;;;;;58.70;32.37;;;12.20;99.90;;;;;;4395154;28;657783;-67
2021/09/30 05:56:11;;;;;;;71.30;31.77;;;12.20;99.90;;;;;;4396331;28;656656;-67
2021/09/30 05:58:58;;;;;;;54.73;29.90;;;12.30;99.90;;;;;;4387165;28;656456;-72
2021/09/30 06:11:22;;;;;;;51.93;26.93;;;12.20;99.90;;;;;;4389245;28;657078;-72
2021/09/30 06:14:11;;;;;;;50.50;25.90;;;12.20;99.90;;;;;;4396734;28;656632;-72
2021/09/30 06:17:00;;;;;;;50.70;26.40;;;12.20;99.90;;;;;;4382811;28;656435;-72
2021/09/30 06:19:48;;;;;;;44.13;24.27;;;12.20;99.90;;;;;;4398855;28;658139;-72
2021/09/30 06:22:35;;;;;;;43.57;21.43;;;12.20;99.90;;;;;;4382780;28;656508;-73
2021/09/30 06:25:25;;;;;;;40.17;21.53;;;12.00;99.90;;;;;;4404384;28;657473;-73
2021/09/30 06:28:12;;;;;;;36.33;20.07;;;12.00;99.90;;;;;;4388938;28;658081;-72
2021/09/30 06:31:00;;;;;;;37.60;19.70;;;12.00;99.90;;;;;;4414624;28;656780;-73
2021/09/30 06:33:47;;;;;;;40.33;17.23;;;12.00;99.90;;;;;;4409259;28;658014;-73
2021/09/30 06:36:36;;;;;;;37.57;19.40;;;12.00;99.90;;;;;;4400904;28;657823;-72
2021/09/30 06:39:23;;;;;;;37.07;18.57;;;12.00;99.90;;;;;;4414152;28;657107;-72
2021/09/30 06:42:12;;;;;;;35.00;18.87;;;12.00;99.90;;;;;;4395704;28;656935;-72
2021/09/30 06:45:00;;;;;;;32.53;18.90;;;12.10;99.90;;;;;;4416054;28;656323;-72
2021/09/30 06:47:48;;;;;;;36.57;18.93;;;12.00;99.90;;;;;;4388587;28;657661;-72
2021/09/30 06:50:36;;;;;;;30.63;17.92;;;12.10;99.90;;;;;;4373227;28;656820;-72
2021/09/30 06:53:24;;;;;;;34.77;17.67;;;12.10;99.90;;;;;;4371964;28;656378;-72
2021/09/30 06:56:14;;;;;;;34.27;19.00;;;12.10;99.90;;;;;;4354597;28;658032;-71
2021/09/30 06:59:06;;;;;;;34.87;17.90;;;12.20;99.90;;;;;;4369357;28;657011;-72
2021/09/30 07:01:55;;;;;;;32.43;16.93;;;12.20;99.90;;;;;;4375411;28;657581;-72
2021/09/30 07:04:43;;;;;;;30.47;16.57;;;12.30;99.90;;;;;;4384187;28;657384;-71
2021/09/30 07:07:31;;;;;;;29.83;16.13;;;12.30;99.90;;;;;;4385847;28;657400;-72
2021/09/30 07:10:19;;;;;;;28.60;16.40;;;12.40;99.90;;;;;;4406452;28;656738;-72
2021/09/30 07:13:06;;;;;;;27.47;14.73;;;12.50;99.90;;;;;;4395395;28;656740;-72
2021/09/30 07:15:56;;;;;;;27.83;15.13;;;12.60;99.90;;;;;;4414928;28;656619;-72
2021/09/30 07:18:44;;;;;;;28.63;15.03;;;12.70;99.90;;;;;;4385197;28;657964;-72
2021/09/30 07:21:33;;;;;;;23.83;13.27;;;12.90;99.90;;;;;;4395756;28;656437;-72
2021/09/30 07:24:20;;;;;;;23.47;13.17;;;12.90;99.90;;;;;;4389669;28;656563;-73
2021/09/30 07:27:09;;;;;;;25.20;13.73;;;12.80;99.90;;;;;;4408704;28;657462;-72
2021/09/30 07:29:57;;;;;;;21.87;12.57;;;12.80;99.90;;;;;;4392791;28;657022;-72
2021/09/30 07:32:47;;;;;;;22.23;11.57;;;12.90;99.90;;;;;;4404091;28;656825;-71
2021/09/30 07:35:35;;;;;;;23.93;10.90;;;12.80;99.90;;;;;;4403357;28;657175;-72
2021/09/30 07:38:24;;;;;;;23.53;10.83;;;12.80;99.90;;;;;;4390271;28;656801;-72
2021/09/30 07:41:12;;;;;;;20.80;10.70;;;12.80;99.90;;;;;;4397509;28;656851;-72
2021/09/30 07:44:03;;;;;;;20.13;10.37;;;12.70;99.90;;;;;;4426177;28;657366;-72
2021/09/30 07:46:51;;;;;;;23.43;9.87;;;12.70;99.90;;;;;;4406352;28;656508;-73
2021/09/30 07:49:43;;;;;;;23.17;9.93;;;12.70;99.90;;;;;;4417857;28;656770;-72
2021/09/30 07:52:31;;;;;;;17.63;9.20;;;12.80;99.90;;;;;;4376915;28;655644;-73
2021/09/30 07:55:19;;;;;;;21.27;9.40;;;12.80;99.90;;;;;;4399890;28;656124;-72
2021/09/30 07:58:09;;;;;;;20.53;9.80;;;12.80;99.90;;;;;;4395163;28;655477;-72
2021/09/30 08:00:57;;;;;;;19.43;8.93;;;12.70;99.90;;;;;;4412016;28;655662;-72
2021/09/30 08:03:45;;;;;;;16.97;9.47;;;12.70;99.90;;;;;;4425347;28;656205;-72
2021/09/30 08:06:38;;;;;;;19.73;9.17;;;12.60;99.90;;;;;;4384332;28;656235;-72
2021/09/30 08:09:26;;;;;;;14.73;8.10;;;12.60;99.90;;;;;;4392029;28;656533;-72
2021/09/30 08:12:14;;;;;;;14.90;8.53;;;12.60;99.90;;;;;;4418474;28;656240;-73
2021/09/30 08:15:02;;;;;;;19.77;8.40;;;12.70;99.90;;;;;;4395695;28;656016;-73
2021/09/30 08:17:51;;;;;;;13.73;8.30;;;12.90;99.90;;;;;;4425589;28;656141;-72
2021/09/30 08:20:42;;;;;;;13.00;7.77;;;12.90;99.90;;;;;;4430708;28;656074;-73
2021/09/30 08:23:32;;;;;;;15.93;8.03;;;12.80;99.90;;;;;;4410357;28;655922;-73
2021/09/30 08:26:23;;;;;;;16.07;7.67;;;12.80;99.90;;;;;;4412150;28;655504;-72
2021/09/30 08:29:11;;;;;;;15.83;8.27;;;12.80;99.90;;;;;;4369274;28;656628;-72
2021/09/30 08:31:59;;;;;;;17.07;7.70;;;12.70;99.90;;;;;;4429446;28;656336;-72
2021/09/30 08:34:46;;;;;;;12.87;7.23;;;12.70;99.90;;;;;;4392341;28;655651;-72
2021/09/30 08:37:36;;;;;;;11.87;7.00;;;12.60;99.90;;;;;;4394953;28;656460;-74
2021/09/30 08:40:25;;;;;;;12.97;6.50;;;12.50;99.90;;;;;;4389005;28;655752;-74
2021/09/30 08:43:13;;;;;;;14.73;6.40;;;12.40;99.90;;;;;;4390641;28;656223;-72
2021/09/30 08:46:02;;;;;;;13.27;7.17;;;12.40;99.90;;;;;;4395343;28;656304;-72
2021/09/30 08:48:50;;;;;;;15.27;7.73;;;12.30;99.90;;;;;;4408631;28;656060;-71
2021/09/30 08:51:38;;;;;;;12.93;7.73;;;12.30;99.90;;;;;;4397796;28;656896;-72
2021/09/30 08:54:26;;;;;;;15.23;7.40;;;12.30;99.90;;;;;;4389154;28;656366;-73
2021/09/30 08:57:16;;;;;;;16.83;7.40;;;12.20;99.90;;;;;;4407533;28;655832;-73
2021/09/30 09:00:07;;;;;;;14.83;7.00;;;12.10;99.90;;;;;;4378429;28;656089;-72
2021/09/30 09:02:55;;;;;;;12.90;6.77;;;12.10;99.90;;;;;;4381278;28;655822;-72
2021/09/30 09:05:43;;;;;;;12.03;6.40;;;12.00;99.90;;;;;;4395265;28;657097;-72
2021/09/30 09:08:31;;;;;;;15.33;7.43;;;12.10;99.90;;;;;;4380684;28;655381;-72
2021/09/30 09:11:18;;;;;;;17.27;7.47;;;12.30;99.90;;;;;;4410724;28;655419;-74
2021/09/30 09:14:08;;;;;;;18.87;7.53;;;12.20;99.90;;;;;;4375476;28;655604;-72
2021/09/30 09:17:00;;;;;;;10.53;5.80;;;12.20;99.90;;;;;;4399257;28;655420;-74
2021/09/30 09:19:49;;;;;;;11.45;6.50;;;12.10;99.90;;;;;;4399934;28;657251;-72
2021/09/30 09:22:37;;;;;;;13.03;6.47;;;12.00;99.90;;;;;;4397645;28;656153;-72
2021/09/30 09:25:27;;;;;;;11.80;6.10;;;12.00;99.90;;;;;;4400122;28;655595;-73
2021/09/30 09:28:19;;;;;;;10.60;5.30;;;11.90;99.90;;;;;;4378382;28;655827;-72
2021/09/30 09:31:15;;;;;;;12.77;6.60;;;11.90;99.90;;;;;;4333145;28;656781;-73
2021/09/30 09:34:19;;;;;;;17.30;8.60;;;11.80;99.90;;;;;;4402110;28;656286;-72
2021/09/30 09:37:20;;;;;;;18.63;8.83;;;11.80;99.90;;;;;;4393168;28;656915;-72
2021/09/30 09:40:14;;;;;;;16.37;8.80;;;11.70;99.90;;;;;;4376551;28;655302;-72
2021/09/30 09:43:03;;;;;;;19.43;8.90;;;11.60;99.90;;;;;;4414897;28;656547;-73
2021/09/30 09:45:51;;;;;;;20.20;9.13;;;11.60;99.90;;;;;;4408060;28;655516;-72
2021/09/30 09:48:41;;;;;;;16.97;8.90;;;11.60;99.90;;;;;;4416455;28;656578;-72
2021/09/30 09:51:35;;;;;;;13.23;8.07;;;11.50;99.90;;;;;;4394817;28;657548;-71
2021/09/30 09:54:26;;;;;;;19.40;7.72;;;11.50;99.90;;;;;;4414462;28;655109;-72
2021/09/30 09:57:15;;;;;;;15.50;7.93;;;11.60;99.90;;;;;;4410504;28;655864;-72
2021/09/30 10:00:13;;;;;;;16.50;7.60;;;11.50;99.90;;;;;;4415709;28;656355;-72
2021/09/30 10:03:15;;;;;;;20.20;8.03;;;11.50;99.90;;;;;;4381790;28;655429;-73
2021/09/30 10:06:05;;;;;;;16.00;8.13;;;11.40;99.90;;;;;;4388825;28;656226;-73
2021/09/30 10:08:53;;;;;;;15.73;8.33;;;11.40;99.90;;;;;;4415914;28;656130;-73
2021/09/30 10:11:41;;;;;;;17.73;8.52;;;11.50;99.90;;;;;;4415475;28;655896;-73
2021/09/30 10:14:29;;;;;;;17.20;9.30;;;11.50;99.90;;;;;;4422000;28;656611;-73
2021/09/30 10:17:19;;;;;;;16.90;8.17;;;11.50;99.90;;;;;;4404795;28;655736;-74
2021/09/30 10:20:10;;;;;;;20.80;9.47;;;11.60;99.90;;;;;;4413260;28;656045;-73
2021/09/30 10:23:02;;;;;;;15.37;9.00;;;11.60;99.90;;;;;;4393450;28;656607;-71
2021/09/30 10:25:50;;;;;;;17.50;9.50;;;11.70;99.90;;;;;;4382962;28;655397;-72
2021/09/30 10:28:40;;;;;;;21.33;10.23;;;11.70;99.90;;;;;;4404702;28;655990;-72
2021/09/30 10:31:30;;;;;;;19.63;9.60;;;11.70;99.90;;;;;;4392475;28;657277;-72
2021/09/30 10:34:18;;;;;;;20.00;10.23;;;11.80;99.90;;;;;;4398292;28;656219;-72
2021/09/30 10:37:25;;;;;;;19.83;10.43;;;11.90;99.90;;;;;;4412300;28;656861;-72
2021/09/30 10:40:19;;;;;;;19.07;9.77;;;12.00;99.90;;;;;;4413747;28;656712;-72
2021/09/30 10:43:20;;;;;;;22.03;10.03;;;12.20;99.90;;;;;;4414930;28;655422;-72
2021/09/30 10:46:09;;;;;;;21.57;9.60;;;12.30;99.90;;;;;;4359832;28;658621;-72
2021/09/30 10:48:57;;;;;;;15.97;8.80;;;12.30;99.90;;;;;;4403898;28;656242;-73
2021/09/30 10:52:04;;;;;;;15.60;8.40;;;12.40;99.90;;;;;;4399365;28;655208;-73
2021/09/30 10:54:54;;;;;;;18.03;9.80;;;12.50;99.90;;;;;;4370784;28;656692;-74
2021/09/30 10:57:44;;;;;;;19.40;9.13;;;12.30;99.90;;;;;;4401968;28;655606;-72
2021/09/30 11:00:52;;;;;;;18.13;8.30;;;12.20;99.90;;;;;;4399322;28;656222;-72
2021/09/30 11:03:40;;;;;;;10.87;7.07;;;12.40;99.90;;;;;;4407767;28;656593;-71
2021/09/30 11:06:28;;;;;;;13.80;6.37;;;12.60;99.90;;;;;;4410395;28;656716;-72
2021/09/30 11:09:18;;;;;;;14.80;7.07;;;12.70;99.90;;;;;;4426192;28;655407;-73
2021/09/30 11:12:08;;;;;;;14.47;6.87;;;12.80;99.90;;;;;;4414844;28;655728;-72
2021/09/30 11:14:57;;;;;;;13.70;6.47;;;12.90;99.90;;;;;;4413531;28;656256;-72
2021/09/30 11:17:46;;;;;;;14.00;6.80;;;12.90;82.10;;;;;;4431268;28;655327;-72
2021/09/30 11:20:34;;;;;;;17.30;6.27;;;12.80;86.20;;;;;;4420541;28;656211;-73
2021/09/30 11:23:51;;;;;;;15.40;7.77;;;12.60;82.40;;;;;;4404124;28;656105;-74
2021/09/30 11:27:12;;;;;;;14.43;7.37;;;12.40;96.60;;;;;;4383538;28;655939;-73
2021/09/30 11:30:25;;;;;;;16.33;7.30;;;12.60;99.90;;;;;;4389716;28;655820;-73
2021/09/30 11:33:12;;;;;;;16.10;7.70;;;12.80;99.90;;;;;;4387210;28;655968;-73
2021/09/30 11:36:01;;;;;;;21.97;8.20;;;12.90;99.90;;;;;;4420090;28;656385;-74
2021/09/30 11:38:50;;;;;;;14.77;7.70;;;13.10;95.70;;;;;;4433901;28;656509;-72
2021/09/30 11:41:39;;;;;;;14.23;8.00;;;13.10;78.30;;;;;;4413106;28;656008;-73
2021/09/30 11:44:27;;;;;;;17.40;8.23;;;12.90;74.90;;;;;;4414492;28;656751;-73
2021/09/30 11:47:17;;;;;;;13.50;6.67;;;13.00;59.60;;;;;;4427342;28;656185;-74
2021/09/30 11:50:06;;;;;;;15.20;6.77;;;12.90;49.40;;;;;;4397253;28;655490;-73
2021/09/30 11:53:01;;;;;;;14.43;7.13;;;13.00;65.40;;;;;;4409618;28;655620;-73
2021/09/30 11:55:48;;;;;;;14.87;6.73;;;13.10;80.40;;;;;;4409259;28;656146;-73
2021/09/30 11:58:36;;;;;;;16.77;7.00;;;13.30;56.50;;;;;;4379896;28;655641;-73
2021/09/30 12:01:33;;;;;;;16.10;6.70;;;13.40;81.30;;;;;;4407924;28;655949;-72
2021/09/30 12:04:31;;;;;;;14.67;5.97;;;13.40;28.80;;;;;;4407165;28;655677;-73
2021/09/30 12:07:19;;;;;;;11.30;6.73;;;13.40;17.30;;;;;;4399310;28;655794;-73
2021/09/30 12:10:07;;;;;;;15.33;6.43;;;13.30;11.80;;;;;;4405442;28;655826;-73
2021/09/30 12:12:56;;;;;;;14.40;5.73;;;13.20;10.00;;;;;;4405315;28;656117;-72
2021/09/30 12:15:43;;;;;;;16.40;6.60;;;13.40;17.00;;;;;;4418654;28;655913;-73
2021/09/30 12:18:31;;;;;;;9.77;5.33;;;13.20;11.20;;;;;;4397493;28;655800;-73
2021/09/30 12:21:20;;;;;;;10.77;5.63;;;13.30;28.60;;;;;;4410428;28;655483;-73
2021/09/30 12:24:08;;;;;;;11.70;5.43;;;13.40;15.30;;;;;;4377287;28;656954;-72
2021/09/30 12:26:58;;;;;;;12.30;5.60;;;13.40;7.80;;;;;;4390569;28;655437;-72
2021/09/30 12:29:48;;;;;;;10.60;5.10;;;13.30;99.90;;;;;;4406726;28;654108;-72
2021/09/30 12:32:37;;;;;;;13.93;5.60;;;13.30;99.90;;;;;;4397868;28;655707;-72
2021/09/30 12:35:28;;;;;;;11.80;5.73;;;13.30;99.90;;;;;;4371745;28;656014;-73
2021/09/30 12:38:18;;;;;;;12.00;5.47;;;13.30;99.90;;;;;;4409207;28;655687;-72
2021/09/30 12:41:06;;;;;;;14.27;5.57;;;13.30;99.90;;;;;;4375920;28;655989;-72
2021/09/30 12:43:54;;;;;;;13.57;5.60;;;13.30;99.90;;;;;;4408800;28;657022;-71
2021/09/30 12:46:42;;;;;;;11.87;6.27;;;13.40;99.90;;;;;;4363472;28;655085;-72
2021/09/30 12:49:30;;;;;;;13.07;5.50;;;13.30;99.90;;;;;;4409464;28;655622;-71
2021/09/30 12:52:18;;;;;;;13.70;5.73;;;13.20;99.90;;;;;;4365076;28;657217;-72
2021/09/30 12:55:26;;;;;;;11.20;5.47;;;13.30;99.90;;;;;;4388096;28;655733;-72
2021/09/30 12:58:34;;;;;;;13.53;5.50;;;13.20;99.90;;;;;;4387024;28;656607;-72
2021/09/30 13:01:25;;;;;;;14.50;5.40;;;13.20;99.90;;;;;;4377111;28;656750;-72
2021/09/30 13:04:13;;;;;;;11.50;5.30;;;13.30;99.90;;;;;;4400402;28;656521;-71
2021/09/30 13:07:03;;;;;;;14.07;5.73;;;13.30;99.90;;;;;;4401009;28;655616;-72
2021/09/30 13:10:02;;;;;;;17.60;5.57;;;13.20;99.90;;;;;;4385220;28;655321;-71
2021/09/30 13:13:05;;;;;;;10.23;5.10;;;13.10;99.90;;;;;;4375544;28;655584;-72
2021/09/30 13:15:52;;;;;;;10.87;4.97;;;13.20;99.90;;;;;;4374624;28;656458;-71
2021/09/30 13:18:49;;;;;;;11.13;5.33;;;13.50;99.90;;;;;;4371670;28;655978;-72
2021/09/30 13:21:59;;;;;;;11.23;4.87;;;13.60;99.90;;;;;;4355094;28;655905;-73
2021/09/30 13:24:47;;;;;;;14.40;5.70;;;13.60;99.90;;;;;;4377291;28;655869;-71
2021/09/30 13:27:37;;;;;;;10.13;5.47;;;13.70;99.90;;;;;;4410432;28;655697;-73
2021/09/30 13:30:27;;;;;;;13.87;5.47;;;13.70;99.90;;;;;;4400565;28;655753;-72
2021/09/30 13:33:14;;;;;;;12.97;4.80;;;13.80;99.90;;;;;;4398470;28;656001;-71
2021/09/30 13:36:02;;;;;;;15.87;5.33;;;13.70;99.90;;;;;;4404966;28;655527;-72
2021/09/30 13:38:50;;;;;;;13.73;5.13;;;13.90;99.90;;;;;;4440022;28;655907;-71
2021/09/30 13:41:38;;;;;;;13.87;4.67;;;13.90;99.90;;;;;;4411738;28;656048;-72
2021/09/30 13:44:25;;;;;;;10.93;5.03;;;14.00;99.90;;;;;;4415540;28;656114;-72
2021/09/30 13:47:14;;;;;;;9.50;4.77;;;14.00;99.90;;;;;;4422554;28;656924;-72
2021/09/30 13:50:02;;;;;;;12.70;5.00;;;14.00;99.90;;;;;;4418448;28;655038;-72
2021/09/30 13:52:51;;;;;;;10.23;4.30;;;14.00;99.90;;;;;;4425300;28;655371;-71
2021/09/30 13:55:39;;;;;;;18.77;5.80;;;13.80;99.90;;;;;;4388147;28;656213;-71
2021/09/30 13:58:27;;;;;;;10.87;4.67;;;13.70;99.90;;;;;;4392428;28;655403;-72
2021/09/30 14:01:14;;;;;;;14.27;5.00;;;13.70;99.90;;;;;;4410538;28;655254;-71
2021/09/30 14:04:04;;;;;;;11.23;4.50;;;13.70;99.90;;;;;;4383161;28;657284;-72
2021/09/30 14:06:55;;;;;;;15.30;4.50;;;13.80;99.90;;;;;;4416215;28;655676;-71
2021/09/30 14:09:42;;;;;;;9.95;4.47;;;13.70;99.90;;;;;;4413019;28;656303;-72
2021/09/30 14:12:32;;;;;;;9.03;4.73;;;13.60;99.90;;;;;;4405919;28;654875;-72
2021/09/30 14:15:19;;;;;;;10.97;5.27;;;13.50;99.90;;;;;;4434438;28;655529;-72
2021/09/30 14:18:07;;;;;;;13.23;4.97;;;13.40;99.90;;;;;;4396308;28;656771;-72
2021/09/30 14:20:56;;;;;;;10.73;5.00;;;13.40;99.90;;;;;;4411167;28;655015;-72
2021/09/30 14:23:44;;;;;;;10.75;4.65;;;13.40;99.90;;;;;;4417515;28;657087;-72
2021/09/30 14:26:31;;;;;;;14.33;4.77;;;13.40;99.90;;;;;;4416738;28;655497;-71
2021/09/30 14:29:19;;;;;;;9.83;4.70;;;13.20;99.90;;;;;;4430122;28;655674;-71
2021/09/30 14:32:07;;;;;;;14.27;4.87;;;13.20;99.90;;;;;;4419665;28;654384;-71
2021/09/30 14:34:56;;;;;;;9.03;4.80;;;13.20;99.90;;;;;;4416704;28;655558;-71
2021/09/30 14:37:45;;;;;;;10.50;4.30;;;13.20;99.90;;;;;;4417226;28;656243;-71
2021/09/30 14:40:33;;;;;;;11.67;5.80;;;13.10;99.90;;;;;;4421531;28;655899;-72
2021/09/30 14:43:22;;;;;;;11.43;4.83;;;13.10;99.90;;;;;;4424545;28;655827;-72
2021/09/30 14:46:10;;;;;;;14.60;5.80;;;13.20;99.90;;;;;;4438329;28;656213;-71
2021/09/30 14:48:58;;;;;;;10.23;5.03;;;13.00;99.90;;;;;;4407145;28;657021;-72
2021/09/30 14:51:46;;;;;;;12.43;4.53;;;12.90;99.90;;;;;;4385429;28;655812;-72
2021/09/30 14:54:35;;;;;;;11.53;5.97;;;12.80;99.90;;;;;;4433889;28;657011;-73
2021/09/30 14:57:24;;;;;;;12.23;5.70;;;12.70;1.00;;;;;;4388188;28;656826;-71
2021/09/30 15:00:14;;;;;;;13.30;5.50;;;12.70;1.00;;;;;;4395649;28;655384;-72
2021/09/30 15:03:05;;;;;;;14.00;5.80;;;12.80;1.00;;;;;;4418654;28;655102;-72
2021/09/30 15:05:52;;;;;;;14.27;5.63;;;12.80;1.00;;;;;;4417818;28;655283;-72
2021/09/30 15:08:41;;;;;;;12.50;5.03;;;12.80;1.00;;;;;;4438819;28;654310;-72
2021/09/30 15:11:30;;;;;;;21.17;6.60;;;12.80;1.00;;;;;;4423234;28;654866;-72
2021/09/30 15:14:18;;;;;;;15.67;5.73;;;12.90;1.00;;;;;;4404461;28;656268;-71
2021/09/30 15:17:10;;;;;;;13.30;6.33;;;12.80;1.00;;;;;;4409563;28;654949;-73
2021/09/30 15:20:12;;;;;;;18.30;6.40;;;12.90;1.00;;;;;;4412969;28;655329;-72
2021/09/30 15:22:59;;;;;;;12.40;6.63;;;12.80;1.00;;;;;;4403968;28;655071;-72
2021/09/30 15:25:48;;;;;;;14.57;6.40;;;12.80;1.00;;;;;;4416267;28;655507;-72
2021/09/30 15:28:37;;;;;;;14.20;6.77;;;12.80;1.00;;;;;;4417526;28;656394;-72
2021/09/30 15:31:26;;;;;;;13.67;5.90;;;12.90;1.00;;;;;;4433313;28;654721;-71
2021/09/30 15:34:18;;;;;;;17.20;6.83;;;12.80;1.00;;;;;;4396504;28;654343;-72
2021/09/30 15:37:05;;;;;;;15.47;6.60;;;13.60;1.00;;;;;;4372190;28;654387;-72
2021/09/30 15:39:53;;;;;;;15.80;6.33;;;15.60;1.00;;;;;;4431717;28;655759;-72
2021/09/30 15:42:41;;;;;;;13.60;5.50;;;17.00;99.90;;;;;;4415589;28;654519;-72
2021/09/30 15:45:30;;;;;;;20.10;5.87;;;17.00;99.90;;;;;;4437255;28;656752;-71
2021/09/30 15:48:17;;;;;;;9.43;5.53;;;16.50;99.90;;;;;;4397896;28;656478;-72
2021/09/30 15:51:05;;;;;;;12.63;6.00;;;16.10;99.90;;;;;;4422256;28;654137;-72
2021/09/30 15:53:53;;;;;;;13.80;6.57;;;15.70;99.90;;;;;;4403578;28;656080;-72
2021/09/30 15:56:41;;;;;;;14.57;7.30;;;15.40;99.90;;;;;;4430290;28;655387;-71
2021/09/30 15:59:28;;;;;;;16.80;8.30;;;15.20;99.90;;;;;;4411928;28;656842;-72
2021/09/30 16:02:17;;;;;;;21.83;8.60;;;14.90;99.90;;;;;;4411361;28;655734;-72
2021/09/30 16:05:05;;;;;;;20.57;10.33;;;14.70;99.90;;;;;;4404990;28;656427;-71
2021/09/30 16:07:53;;;;;;;21.67;13.17;;;14.40;99.90;;;;;;4380106;28;657425;-72
2021/09/30 16:10:41;;;;;;;23.73;12.57;;;14.10;99.90;;;;;;4406859;28;656491;-72
2021/09/30 16:13:29;;;;;;;18.20;9.47;;;13.90;99.90;;;;;;4420662;28;657775;-72
2021/09/30 16:16:17;;;;;;;16.97;8.60;;;13.70;1.00;;;;;;4416337;28;657018;-72
2021/09/30 16:19:06;;;;;;;16.17;9.40;;;13.60;1.00;;;;;;4409272;28;654511;-72
2021/09/30 16:21:54;;;;;;;24.23;9.30;;;13.40;1.00;;;;;;4402510;28;656883;-71
2021/09/30 16:24:41;;;;;;;20.27;9.40;;;13.20;1.00;;;;;;4411094;28;655678;-72
2021/09/30 16:27:29;;;;;;;20.73;10.77;;;13.10;1.00;;;;;;4431646;28;655268;-71
2021/09/30 16:30:17;;;;;;;20.83;9.67;;;12.90;1.00;;;;;;4411386;28;656356;-72
2021/09/30 16:33:08;;;;;;;24.53;12.03;;;12.90;1.00;;;;;;4409743;28;655517;-71
2021/09/30 16:35:58;;;;;;;25.77;12.90;;;12.80;1.00;;;;;;4333673;28;657832;-72
2021/09/30 16:38:48;;;;;;;31.50;12.70;;;12.70;1.00;;;;;;4387066;28;656778;-73
2021/09/30 16:41:37;;;;;;;23.23;12.27;;;12.50;1.00;;;;;;4395297;28;656939;-72
2021/09/30 16:44:25;;;;;;;21.37;10.67;;;12.50;1.00;;;;;;4406869;28;656731;-72
2021/09/30 16:47:14;;;;;;;24.33;12.77;;;12.30;1.00;;;;;;4381331;28;657972;-72
2021/09/30 16:50:02;;;;;;;23.97;11.00;;;12.20;1.00;;;;;;4374424;28;657258;-72
2021/09/30 16:52:51;;;;;;;22.43;10.77;;;12.10;2.40;;;;;;4404158;28;656949;-71
2021/09/30 16:55:40;;;;;;;18.83;9.57;;;11.90;4.20;;;;;;4382687;28;657968;-72